createdAt,value
2023-04-18T00:00:56.165Z,101863.35
2023-04-18T00:02:01.937Z,101863.83
2023-04-18T00:03:07.942Z,101860.94
2023-04-18T00:04:14.776Z,101869.81
2023-04-18T00:05:21.039Z,101862.69
2023-04-18T00:06:26.656Z,101860.63
2023-04-18T00:07:32.012Z,101860.99
2023-04-18T00:08:37.381Z,101864.03
2023-04-18T00:09:42.788Z,101866.23
2023-04-18T00:10:48.266Z,101866.66
2023-04-18T00:11:53.596Z,101859.03
2023-04-18T00:12:58.977Z,101858.25
2023-04-18T00:14:04.328Z,101862.28
2023-04-18T00:15:09.661Z,101858.88
2023-04-18T00:16:15.187Z,101859.8
2023-04-18T00:17:20.607Z,101856.77
2023-04-18T00:18:26.052Z,101859.95
2023-04-18T00:19:31.409Z,101855.42
2023-04-18T00:20:36.826Z,101863.41
2023-04-18T00:21:42.144Z,101861.59
2023-04-18T00:22:47.461Z,101859.27
2023-04-18T00:23:52.817Z,101859.19
2023-04-18T00:24:58.236Z,101857.01
2023-04-18T00:26:03.661Z,101863.35
2023-04-18T00:27:08.974Z,101862.48
2023-04-18T00:28:14.340Z,101858.55
2023-04-18T00:29:19.697Z,101857.22
2023-04-18T00:30:25.065Z,101849.95
2023-04-18T00:31:30.459Z,101860.61
2023-04-18T00:32:36.041Z,101857.33
2023-04-18T00:33:41.625Z,101861.5
2023-04-18T00:34:46.953Z,101865.31
2023-04-18T00:35:52.305Z,101857.74
2023-04-18T00:36:57.656Z,101850.53
2023-04-18T00:38:03.044Z,101856.87
2023-04-18T00:39:08.382Z,101857.14
2023-04-18T00:40:13.674Z,101857.14
2023-04-18T00:41:19.003Z,101850.89
2023-04-18T00:42:24.308Z,101857.23
2023-04-18T00:43:29.665Z,101854.91
2023-04-18T00:44:35.004Z,101853.16
2023-04-18T00:45:40.340Z,101855.89
2023-04-18T00:46:45.754Z,101859.02
2023-04-18T00:47:51.306Z,101855.78
2023-04-18T00:48:56.844Z,101853.3
2023-04-18T00:50:02.199Z,101851.34
2023-04-18T00:51:07.537Z,101854.02
2023-04-18T00:52:12.927Z,101850.27
2023-04-18T00:53:18.266Z,101859.17
2023-04-18T00:54:23.634Z,101855
2023-04-18T00:55:29.008Z,101845.08
2023-04-18T00:56:34.336Z,101844.81
2023-04-18T00:57:39.701Z,101847.91
2023-04-18T00:58:45.073Z,101849.6
2023-04-18T00:59:50.401Z,101849.66
2023-04-18T01:00:55.748Z,101843.64
2023-04-18T01:02:01.470Z,101852.55
2023-04-18T01:03:07.247Z,101849.19
2023-04-18T01:04:13.871Z,101849.24
2023-04-18T01:05:19.856Z,101850.8
2023-04-18T01:06:25.279Z,101846.56
2023-04-18T01:07:30.616Z,101851.92
2023-04-18T01:08:35.972Z,101837.39
2023-04-18T01:09:41.292Z,101851.52
2023-04-18T01:10:47.640Z,101847.75
2023-04-18T01:11:53.261Z,101843.94
2023-04-18T01:12:58.586Z,101844.86
2023-04-18T01:14:03.945Z,101844.5
2023-04-18T01:15:09.383Z,101841.77
2023-04-18T01:16:14.748Z,101847.55
2023-04-18T01:17:20.180Z,101834.36
2023-04-18T01:18:25.566Z,101844
2023-04-18T01:19:30.925Z,101845.34
2023-04-18T01:20:36.229Z,101837.75
2023-04-18T01:21:41.552Z,101843.37
2023-04-18T01:22:46.895Z,101841.88
2023-04-18T01:23:52.227Z,101839.7
2023-04-18T01:24:57.656Z,101846.63
2023-04-18T01:26:03.042Z,101847.75
2023-04-18T01:27:08.382Z,101837.86
2023-04-18T01:28:13.755Z,101842.8
2023-04-18T01:29:19.123Z,101840.91
2023-04-18T01:30:24.938Z,101843.37
2023-04-18T01:31:30.357Z,101846.41
2023-04-18T01:32:35.774Z,101838.64
2023-04-18T01:33:41.275Z,101841.67
2023-04-18T01:34:46.590Z,101851.83
2023-04-18T01:35:51.944Z,101843.58
2023-04-18T01:36:57.275Z,101844.41
2023-04-18T01:38:02.588Z,101846.53
2023-04-18T01:39:07.921Z,101847.92
2023-04-18T01:40:13.266Z,101844.62
2023-04-18T01:41:18.614Z,101841.31
2023-04-18T01:42:23.937Z,101844.92
2023-04-18T01:43:29.269Z,101842.3
2023-04-18T01:44:34.656Z,101842.3
2023-04-18T01:45:40.008Z,101852.34
2023-04-18T01:46:45.622Z,101849.19
2023-04-18T01:47:51.286Z,101844.98
2023-04-18T01:48:56.787Z,101848.73
2023-04-18T01:50:02.239Z,101849.56
2023-04-18T01:51:07.550Z,101849.27
2023-04-18T01:52:13.077Z,101849.92
2023-04-18T01:53:18.401Z,101844.83
2023-04-18T01:54:23.731Z,101850.43
2023-04-18T01:55:29.065Z,101848.43
2023-04-18T01:56:34.375Z,101849.77
2023-04-18T01:57:39.709Z,101853.07
2023-04-18T01:58:45.151Z,101849.55
2023-04-18T01:59:50.534Z,101839.83
2023-04-18T02:00:56.049Z,101838.28
2023-04-18T02:02:01.648Z,101847.45
2023-04-18T02:03:07.739Z,101849.83
2023-04-18T02:04:13.828Z,101850.55
2023-04-18T02:05:19.763Z,101845.34
2023-04-18T02:06:25.125Z,101842.23
2023-04-18T02:07:30.498Z,101845.96
2023-04-18T02:08:36.130Z,101844.5
2023-04-18T02:09:41.584Z,101844.71
2023-04-18T02:10:46.912Z,101848.01
2023-04-18T02:11:52.227Z,101848.13
2023-04-18T02:12:57.561Z,101843.22
2023-04-18T02:14:02.971Z,101846.53
2023-04-18T02:15:08.359Z,101839.7
2023-04-18T02:16:13.773Z,101841.58
2023-04-18T02:17:19.198Z,101847.19
2023-04-18T02:18:24.659Z,101843.16
2023-04-18T02:19:30.040Z,101847.24
2023-04-18T02:20:35.362Z,101845.34
2023-04-18T02:21:40.749Z,101845.34
2023-04-18T02:22:46.089Z,101848.64
2023-04-18T02:23:51.421Z,101838.99
2023-04-18T02:24:56.756Z,101840.19
2023-04-18T02:26:02.102Z,101841.47
2023-04-18T02:27:07.442Z,101838.01
2023-04-18T02:28:12.979Z,101839.2
2023-04-18T02:29:18.286Z,101835.33
2023-04-18T02:30:23.610Z,101840.33
2023-04-18T02:31:28.994Z,101840.59
2023-04-18T02:32:34.475Z,101839.14
2023-04-18T02:33:39.907Z,101844.5
2023-04-18T02:34:45.231Z,101836.52
2023-04-18T02:35:50.565Z,101842.39
2023-04-18T02:36:55.924Z,101837.39
2023-04-18T02:38:01.251Z,101830.18
2023-04-18T02:39:06.615Z,101835.54
2023-04-18T02:40:11.980Z,101831.94
2023-04-18T02:41:17.503Z,101833.73
2023-04-18T02:42:22.885Z,101836.88
2023-04-18T02:43:28.203Z,101839.14
2023-04-18T02:44:33.551Z,101841.77
2023-04-18T02:45:38.941Z,101842.39
2023-04-18T02:46:44.433Z,101834.19
2023-04-18T02:47:57.330Z,101841.05
2023-04-18T02:49:02.717Z,101838.37
2023-04-18T02:50:08.064Z,101845.39
2023-04-18T02:51:13.402Z,101839.25
2023-04-18T02:52:18.974Z,101834.25
2023-04-18T02:53:24.321Z,101840.03
2023-04-18T02:54:29.635Z,101839.41
2023-04-18T02:55:34.955Z,101841.16
2023-04-18T02:56:40.278Z,101836.67
2023-04-18T02:57:45.661Z,101840.89
2023-04-18T02:58:50.992Z,101842.66
2023-04-18T02:59:56.301Z,101843.98
2023-04-18T03:01:01.704Z,101842.14
2023-04-18T03:02:07.175Z,101848.79
2023-04-18T03:03:12.750Z,101840.69
2023-04-18T03:04:18.354Z,101849.56
2023-04-18T03:05:23.802Z,101842.3
2023-04-18T03:06:29.098Z,101845.33
2023-04-18T03:07:34.424Z,101840.39
2023-04-18T03:08:39.837Z,101848.22
2023-04-18T03:09:45.163Z,101852.77
2023-04-18T03:10:50.574Z,101847.5
2023-04-18T03:11:56.054Z,101844.93
2023-04-18T03:13:01.396Z,101844.57
2023-04-18T03:14:06.746Z,101843.23
2023-04-18T03:15:12.084Z,101844.88
2023-04-18T03:16:17.584Z,101847.75
2023-04-18T03:17:23.165Z,101837.45
2023-04-18T03:18:28.850Z,101840.19
2023-04-18T03:19:34.236Z,101840.7
2023-04-18T03:20:39.576Z,101851.84
2023-04-18T03:21:44.911Z,101844.63
2023-04-18T03:22:50.262Z,101839.72
2023-04-18T03:23:55.605Z,101838.59
2023-04-18T03:25:00.988Z,101845.34
2023-04-18T03:26:06.390Z,101847.14
2023-04-18T03:27:11.739Z,101842.25
2023-04-18T03:28:17.094Z,101843.59
2023-04-18T03:29:22.451Z,101844.31
2023-04-18T03:30:27.799Z,101839.93
2023-04-18T03:31:33.198Z,101843.95
2023-04-18T03:32:38.737Z,101844.37
2023-04-18T03:33:44.166Z,101844.81
2023-04-18T03:34:49.568Z,101849.61
2023-04-18T03:35:54.910Z,101845.66
2023-04-18T03:37:00.237Z,101849.61
2023-04-18T03:38:05.572Z,101849.92
2023-04-18T03:39:10.872Z,101854.83
2023-04-18T03:40:16.258Z,101852.5
2023-04-18T03:41:21.573Z,101850.39
2023-04-18T03:42:26.892Z,101846.31
2023-04-18T03:43:33.236Z,101841.52
2023-04-18T03:44:38.602Z,101844.97
2023-04-18T03:45:43.952Z,101853.84
2023-04-18T03:46:49.295Z,101848.99
2023-04-18T03:47:54.778Z,101843.98
2023-04-18T03:49:00.187Z,101843.06
2023-04-18T03:50:05.553Z,101847.92
2023-04-18T03:51:11.100Z,101841.22
2023-04-18T03:52:16.437Z,101845.23
2023-04-18T03:53:22.091Z,101845.23
2023-04-18T03:54:27.438Z,101842.59
2023-04-18T03:55:32.817Z,101844.96
2023-04-18T03:56:38.231Z,101849.91
2023-04-18T03:57:43.562Z,101846.42
2023-04-18T03:58:48.921Z,101842.75
2023-04-18T03:59:54.275Z,101844.47
2023-04-18T04:00:59.664Z,101847.97
2023-04-18T04:02:05.364Z,101850.55
2023-04-18T04:03:11.331Z,101836.07
2023-04-18T04:04:17.775Z,101860.55
2023-04-18T04:05:23.520Z,101847.81
2023-04-18T04:06:28.884Z,101849.31
2023-04-18T04:07:34.209Z,101857.39
2023-04-18T04:08:39.537Z,101856.06
2023-04-18T04:09:44.867Z,101855.27
2023-04-18T04:10:50.178Z,101857.61
2023-04-18T04:11:55.513Z,101857.4
2023-04-18T04:13:00.884Z,101858.3
2023-04-18T04:14:06.190Z,101856.55
2023-04-18T04:15:11.583Z,101855.31
2023-04-18T04:16:17.047Z,101857.58
2023-04-18T04:17:22.512Z,101859.46
2023-04-18T04:18:27.904Z,101858.27
2023-04-18T04:19:33.271Z,101858.42
2023-04-18T04:20:38.628Z,101858.58
2023-04-18T04:21:43.953Z,101853.87
2023-04-18T04:22:49.412Z,101848.86
2023-04-18T04:23:54.805Z,101855.72
2023-04-18T04:25:00.176Z,101863.14
2023-04-18T04:26:05.514Z,101857.2
2023-04-18T04:27:10.832Z,101857.56
2023-04-18T04:28:16.158Z,101858.79
2023-04-18T04:29:21.463Z,101859.2
2023-04-18T04:30:26.818Z,101857.45
2023-04-18T04:31:32.244Z,101860.48
2023-04-18T04:32:37.767Z,101861.32
2023-04-18T04:33:43.208Z,101850.53
2023-04-18T04:34:51.574Z,101854.05
2023-04-18T04:35:57.028Z,101849.25
2023-04-18T04:37:02.414Z,101852.98
2023-04-18T04:38:07.773Z,101852.98
2023-04-18T04:39:13.197Z,101862.88
2023-04-18T04:40:18.540Z,101859.41
2023-04-18T04:41:24.038Z,101854.97
2023-04-18T04:42:29.400Z,101852.47
2023-04-18T04:43:34.735Z,101861.59
2023-04-18T04:44:40.127Z,101859.8
2023-04-18T04:45:45.801Z,101854.02
2023-04-18T04:46:54.248Z,101860.42
2023-04-18T04:47:59.678Z,101858.73
2023-04-18T04:49:05.108Z,101854.34
2023-04-18T04:50:10.465Z,101870.02
2023-04-18T04:51:15.818Z,101869.24
2023-04-18T04:52:21.200Z,101863.16
2023-04-18T04:53:26.519Z,101874.37
2023-04-18T04:54:32.922Z,101870.44
2023-04-18T04:55:38.319Z,101864.35
2023-04-18T04:56:43.705Z,101864.92
2023-04-18T04:57:49.084Z,101869.98
2023-04-18T04:58:54.434Z,101871.89
2023-04-18T04:59:59.764Z,101875.55
2023-04-18T05:01:05.144Z,101868.48
2023-04-18T05:02:11.048Z,101867.92
2023-04-18T05:03:16.929Z,101872.57
2023-04-18T05:04:22.887Z,101869.64
2023-04-18T05:05:28.903Z,101868.19
2023-04-18T05:06:34.298Z,101867.89
2023-04-18T05:07:39.638Z,101876.14
2023-04-18T05:08:44.954Z,101874.91
2023-04-18T05:09:50.272Z,101871.03
2023-04-18T05:10:55.582Z,101873.21
2023-04-18T05:12:00.902Z,101880.27
2023-04-18T05:13:06.247Z,101868.98
2023-04-18T05:14:11.733Z,101879.7
2023-04-18T05:15:17.585Z,101868.62
2023-04-18T05:16:23.029Z,101882.23
2023-04-18T05:17:28.599Z,101879.55
2023-04-18T05:18:36.324Z,101878.68
2023-04-18T05:19:41.695Z,101883.56
2023-04-18T05:20:47.018Z,101881.36
2023-04-18T05:21:52.334Z,101881.36
2023-04-18T05:22:57.707Z,101876.45
2023-04-18T05:24:03.046Z,101878.27
2023-04-18T05:25:08.402Z,101875.11
2023-04-18T05:26:13.737Z,101877.13
2023-04-18T05:27:19.633Z,101886.87
2023-04-18T05:28:25.002Z,101881.63
2023-04-18T05:29:30.345Z,101880.79
2023-04-18T05:30:38.093Z,101881.45
2023-04-18T05:31:43.502Z,101881.2
2023-04-18T05:32:48.913Z,101878.32
2023-04-18T05:33:54.355Z,101882.34
2023-04-18T05:34:59.681Z,101879.39
2023-04-18T05:36:05.165Z,101882.55
2023-04-18T05:37:10.495Z,101877.6
2023-04-18T05:38:15.862Z,101874.71
2023-04-18T05:39:21.190Z,101877.86
2023-04-18T05:40:26.518Z,101881.98
2023-04-18T05:41:31.888Z,101889.55
2023-04-18T05:42:37.291Z,101890.03
2023-04-18T05:43:48.352Z,101890.8
2023-04-18T05:45:08.899Z,101883.47
2023-04-18T05:46:14.308Z,101891.88
2023-04-18T05:47:19.680Z,101890.59
2023-04-18T05:48:25.428Z,101884.66
2023-04-18T05:49:30.731Z,101883.79
2023-04-18T05:50:36.115Z,101888.59
2023-04-18T05:51:41.503Z,101890.38
2023-04-18T05:52:46.830Z,101886.72
2023-04-18T05:53:52.156Z,101882.08
2023-04-18T05:54:57.489Z,101886.98
2023-04-18T05:56:02.821Z,101890.89
2023-04-18T05:57:09.246Z,101893.43
2023-04-18T05:58:14.591Z,101884.91
2023-04-18T05:59:19.951Z,101888.84
2023-04-18T06:00:25.280Z,101887.3
2023-04-18T06:01:30.589Z,101888.01
2023-04-18T06:02:36.194Z,101886.16
2023-04-18T06:03:42.322Z,101889.35
2023-04-18T06:04:48.736Z,101887.66
2023-04-18T06:05:54.586Z,101892.39
2023-04-18T06:07:00.161Z,101886.16
2023-04-18T06:08:05.498Z,101884.97
2023-04-18T06:09:10.832Z,101895.19
2023-04-18T06:10:16.213Z,101880.95
2023-04-18T06:11:21.562Z,101889.91
2023-04-18T06:12:26.894Z,101895.69
2023-04-18T06:13:32.213Z,101896.61
2023-04-18T06:14:37.538Z,101894.91
2023-04-18T06:15:42.936Z,101887.7
2023-04-18T06:16:48.369Z,101891.37
2023-04-18T06:17:53.803Z,101894.55
2023-04-18T06:19:02.359Z,101901.25
2023-04-18T06:20:08.733Z,101904.77
2023-04-18T06:21:14.118Z,101901.25
2023-04-18T06:22:19.475Z,101901.25
2023-04-18T06:23:24.862Z,101903.16
2023-04-18T06:24:32.484Z,101904.15
2023-04-18T06:25:37.830Z,101902.03
2023-04-18T06:26:44.188Z,101903.16
2023-04-18T06:27:49.619Z,101904.55
2023-04-18T06:28:54.950Z,101905.53
2023-04-18T06:30:00.450Z,101900.23
2023-04-18T06:31:05.819Z,101905.95
2023-04-18T06:32:11.263Z,101900.03
2023-04-18T06:33:17.616Z,101901.25
2023-04-18T06:34:22.924Z,101900.8
2023-04-18T06:35:28.266Z,101903.33
2023-04-18T06:36:33.838Z,101906.09
2023-04-18T06:37:39.227Z,101899.45
2023-04-18T06:38:44.578Z,101903.67
2023-04-18T06:39:49.899Z,101905.07
2023-04-18T06:40:55.282Z,101895.69
2023-04-18T06:42:00.602Z,101903.67
2023-04-18T06:43:05.968Z,101905.63
2023-04-18T06:44:11.270Z,101908.01
2023-04-18T06:45:16.574Z,101909.77
2023-04-18T06:46:22.121Z,101906.25
2023-04-18T06:47:27.785Z,101911.72
2023-04-18T06:48:33.194Z,101914.04
2023-04-18T06:49:38.583Z,101918.63
2023-04-18T06:50:43.942Z,101911.42
2023-04-18T06:51:49.278Z,101916.86
2023-04-18T06:52:54.649Z,101923.62
2023-04-18T06:53:59.968Z,101907.74
2023-04-18T06:55:05.424Z,101916.25
2023-04-18T06:56:10.857Z,101915.27
2023-04-18T06:57:16.264Z,101914.8
2023-04-18T06:58:24.085Z,101916.56
2023-04-18T06:59:29.471Z,101923.77
2023-04-18T07:00:34.820Z,101914.3
2023-04-18T07:01:40.229Z,101916.2
2023-04-18T07:02:46.035Z,101919.86
2023-04-18T07:03:51.777Z,101914.19
2023-04-18T07:04:57.393Z,101918.66
2023-04-18T07:06:02.818Z,101916.39
2023-04-18T07:07:08.210Z,101925.94
2023-04-18T07:08:13.571Z,101917.28
2023-04-18T07:09:18.948Z,101919.13
2023-04-18T07:10:24.380Z,101922.28
2023-04-18T07:11:29.776Z,101923.52
2023-04-18T07:12:35.142Z,101922.34
2023-04-18T07:13:40.516Z,101916.98
2023-04-18T07:14:45.850Z,101925.69
2023-04-18T07:15:51.187Z,101918.02
2023-04-18T07:16:56.613Z,101927.03
2023-04-18T07:18:02.168Z,101917.09
2023-04-18T07:19:07.591Z,101921.98
2023-04-18T07:20:14.547Z,101929.45
2023-04-18T07:21:19.938Z,101927.44
2023-04-18T07:22:25.298Z,101927.64
2023-04-18T07:23:30.639Z,101921.63
2023-04-18T07:24:35.988Z,101926.31
2023-04-18T07:25:41.376Z,101922.59
2023-04-18T07:26:46.712Z,101929.35
2023-04-18T07:27:52.060Z,101925.64
2023-04-18T07:28:57.505Z,101930.49
2023-04-18T07:30:02.830Z,101924.77
2023-04-18T07:31:08.326Z,101927.95
2023-04-18T07:32:13.695Z,101931.42
2023-04-18T07:33:19.095Z,101931.42
2023-04-18T07:34:24.501Z,101923.02
2023-04-18T07:35:29.816Z,101928.73
2023-04-18T07:36:35.143Z,101936.84
2023-04-18T07:37:40.459Z,101939.04
2023-04-18T07:38:45.797Z,101939.04
2023-04-18T07:39:51.156Z,101936.36
2023-04-18T07:40:56.481Z,101942.19
2023-04-18T07:42:02.119Z,101942.64
2023-04-18T07:43:07.437Z,101938.73
2023-04-18T07:44:13.170Z,101946.72
2023-04-18T07:45:19.233Z,101943.27
2023-04-18T07:46:24.651Z,101940.84
2023-04-18T07:47:32.986Z,101931.87
2023-04-18T07:48:38.858Z,101942.09
2023-04-18T07:49:44.240Z,101939.77
2023-04-18T07:50:49.575Z,101939.05
2023-04-18T07:51:54.896Z,101936.67
2023-04-18T07:53:00.267Z,101944.77
2023-04-18T07:54:05.622Z,101942.03
2023-04-18T07:55:11.011Z,101938.94
2023-04-18T07:56:16.376Z,101940.84
2023-04-18T07:57:21.741Z,101937.29
2023-04-18T07:58:27.101Z,101943.88
2023-04-18T07:59:32.446Z,101940.06
2023-04-18T08:00:40.143Z,101930.59
2023-04-18T08:01:45.532Z,101941.81
2023-04-18T08:02:51.297Z,101942.3
2023-04-18T08:03:57.351Z,101939.97
2023-04-18T08:05:03.192Z,101943.94
2023-04-18T08:06:09.077Z,101937.8
2023-04-18T08:07:14.440Z,101940.12
2023-04-18T08:08:20.844Z,101942.08
2023-04-18T08:09:26.206Z,101938.62
2023-04-18T08:10:31.540Z,101946.93
2023-04-18T08:11:36.964Z,101947.44
2023-04-18T08:12:42.415Z,101944.14
2023-04-18T08:13:47.758Z,101937.44
2023-04-18T08:14:53.120Z,101935.73
2023-04-18T08:15:58.495Z,101940.73
2023-04-18T08:17:03.987Z,101948.73
2023-04-18T08:18:09.342Z,101947.53
2023-04-18T08:19:15.166Z,101940.62
2023-04-18T08:20:20.716Z,101940.22
2023-04-18T08:21:26.277Z,101947.89
2023-04-18T08:22:31.611Z,101944.34
2023-04-18T08:23:36.958Z,101941.56
2023-04-18T08:25:03.630Z,101945.64
2023-04-18T08:26:10.014Z,101948
2023-04-18T08:27:15.437Z,101944.41
2023-04-18T08:28:20.847Z,101944.04
2023-04-18T08:29:26.353Z,101952.28
2023-04-18T08:30:31.740Z,101952.53
2023-04-18T08:31:37.324Z,101950.27
2023-04-18T08:32:42.933Z,101945.83
2023-04-18T08:33:48.444Z,101945.02
2023-04-18T08:34:53.792Z,101949.74
2023-04-18T08:35:59.108Z,101947.38
2023-04-18T08:37:04.449Z,101951.39
2023-04-18T08:38:09.773Z,101946.45
2023-04-18T08:39:15.644Z,101948.23
2023-04-18T08:40:21.189Z,101952.16
2023-04-18T08:41:26.547Z,101947.43
2023-04-18T08:42:31.869Z,101951.65
2023-04-18T08:43:37.237Z,101948.97
2023-04-18T08:44:42.617Z,101949.58
2023-04-18T08:45:48.084Z,101950.53
2023-04-18T08:46:53.472Z,101951.09
2023-04-18T08:47:59.049Z,101946.97
2023-04-18T08:49:04.473Z,101951.92
2023-04-18T08:50:09.843Z,101957.02
2023-04-18T08:51:15.254Z,101952.33
2023-04-18T08:52:20.601Z,101948.92
2023-04-18T08:53:25.966Z,101946.46
2023-04-18T08:54:31.370Z,101946.3
2023-04-18T08:55:36.722Z,101952.23
2023-04-18T08:56:42.134Z,101954.55
2023-04-18T08:57:48.835Z,101949.61
2023-04-18T08:58:54.264Z,101949.14
2023-04-18T08:59:59.623Z,101945.12
2023-04-18T09:01:05.145Z,101951.93
2023-04-18T09:02:11.042Z,101951.87
2023-04-18T09:03:19.262Z,101956.76
2023-04-18T09:04:24.762Z,101947.09
2023-04-18T09:05:30.208Z,101946.05
2023-04-18T09:06:35.805Z,101953.62
2023-04-18T09:07:41.192Z,101947.28
2023-04-18T09:08:46.581Z,101945.8
2023-04-18T09:09:51.912Z,101949.34
2023-04-18T09:10:57.235Z,101945.08
2023-04-18T09:12:02.620Z,101950.74
2023-04-18T09:13:08.003Z,101952.08
2023-04-18T09:14:13.638Z,101950.23
2023-04-18T09:15:19.207Z,101952.08
2023-04-18T09:16:24.700Z,101950.74
2023-04-18T09:17:30.094Z,101957.45
2023-04-18T09:18:35.543Z,101952.44
2023-04-18T09:19:40.886Z,101951.58
2023-04-18T09:20:46.253Z,101948.68
2023-04-18T09:21:51.638Z,101954.34
2023-04-18T09:22:57.100Z,101949.45
2023-04-18T09:24:02.489Z,101948.98
2023-04-18T09:25:07.830Z,101951.16
2023-04-18T09:26:13.148Z,101947.7
2023-04-18T09:27:18.498Z,101951.72
2023-04-18T09:28:27.062Z,101946.47
2023-04-18T09:29:32.517Z,101943.8
2023-04-18T09:30:38.048Z,101949.16
2023-04-18T09:31:46.306Z,101940.64
2023-04-18T09:32:51.765Z,101954.97
2023-04-18T09:33:57.254Z,101956.66
2023-04-18T09:35:05.317Z,101956.36
2023-04-18T09:36:10.737Z,101958.12
2023-04-18T09:37:16.195Z,101951.05
2023-04-18T09:38:21.568Z,101954.6
2023-04-18T09:39:26.891Z,101955.08
2023-04-18T09:40:32.257Z,101952.03
2023-04-18T09:41:37.637Z,101946.88
2023-04-18T09:42:42.954Z,101943.22
2023-04-18T09:43:48.256Z,101956.14
2023-04-18T09:44:54.570Z,101952.13
2023-04-18T09:46:03.665Z,101948.63
2023-04-18T09:47:09.140Z,101947.59
2023-04-18T09:48:14.479Z,101950.78
2023-04-18T09:49:20.042Z,101951.67
2023-04-18T09:50:25.475Z,101951.25
2023-04-18T09:51:30.789Z,101957.65
2023-04-18T09:52:36.159Z,101945.95
2023-04-18T09:53:41.518Z,101953.1
2023-04-18T09:54:49.488Z,101950.48
2023-04-18T09:55:57.843Z,101943.41
2023-04-18T09:57:03.388Z,101948.63
2023-04-18T09:58:11.299Z,101947.74
2023-04-18T09:59:18.611Z,101947.66
2023-04-18T10:00:25.735Z,101951.87
2023-04-18T10:01:31.208Z,101948.16
2023-04-18T10:02:36.860Z,101944.61
2023-04-18T10:03:42.570Z,101938.84
2023-04-18T10:04:48.308Z,101942.86
2023-04-18T10:05:54.854Z,101948.61
2023-04-18T10:07:01.954Z,101947.03
2023-04-18T10:08:07.281Z,101956.05
2023-04-18T10:09:13.302Z,101946
2023-04-18T10:10:19.299Z,101953.77
2023-04-18T10:11:24.643Z,101951.08
2023-04-18T10:12:30.069Z,101954.02
2023-04-18T10:13:35.515Z,101951.03
2023-04-18T10:14:40.907Z,101952.98
2023-04-18T10:15:46.956Z,101948.24
2023-04-18T10:16:52.350Z,101942.69
2023-04-18T10:18:06.777Z,101948.16
2023-04-18T10:19:12.423Z,101946.91
2023-04-18T10:20:18.276Z,101946.29
2023-04-18T10:21:23.767Z,101949.95
2023-04-18T10:22:29.122Z,101949.33
2023-04-18T10:23:34.440Z,101945.92
2023-04-18T10:24:39.780Z,101946.34
2023-04-18T10:25:45.079Z,101939.84
2023-04-18T10:26:50.540Z,101936.97
2023-04-18T10:27:55.902Z,101941.72
2023-04-18T10:29:01.225Z,101943.03
2023-04-18T10:30:08.955Z,101941.8
2023-04-18T10:31:14.453Z,101942.11
2023-04-18T10:32:19.852Z,101937.31
2023-04-18T10:33:31.589Z,101940.97
2023-04-18T10:34:37.877Z,101945.09
2023-04-18T10:35:43.285Z,101944.63
2023-04-18T10:36:48.609Z,101949.67
2023-04-18T10:37:53.971Z,101943.45
2023-04-18T10:38:59.328Z,101941.8
2023-04-18T10:40:04.721Z,101942.86
2023-04-18T10:41:10.167Z,101940.6
2023-04-18T10:42:15.578Z,101940.97
2023-04-18T10:43:20.970Z,101939.98
2023-04-18T10:44:26.379Z,101943.23
2023-04-18T10:45:31.793Z,101950.09
2023-04-18T10:46:37.176Z,101936.28
2023-04-18T10:47:42.786Z,101944.59
2023-04-18T10:48:48.409Z,101931.81
2023-04-18T10:49:53.755Z,101933.42
2023-04-18T10:50:59.272Z,101938.53
2023-04-18T10:52:04.656Z,101941.44
2023-04-18T10:53:11.081Z,101937.27
2023-04-18T10:54:16.644Z,101940.98
2023-04-18T10:55:22.053Z,101935.16
2023-04-18T10:56:27.722Z,101935.57
2023-04-18T10:57:33.134Z,101939.59
2023-04-18T10:58:38.557Z,101935.16
2023-04-18T10:59:43.930Z,101942.22
2023-04-18T11:00:49.361Z,101940.45
2023-04-18T11:01:57.912Z,101935.63
2023-04-18T11:03:03.616Z,101937.69
2023-04-18T11:04:09.485Z,101935.57
2023-04-18T11:05:15.065Z,101932.89
2023-04-18T11:06:20.833Z,101936.86
2023-04-18T11:07:28.390Z,101937.69
2023-04-18T11:08:35.245Z,101934.59
2023-04-18T11:09:40.580Z,101936.08
2023-04-18T11:10:48.003Z,101930.27
2023-04-18T11:11:53.347Z,101933.81
2023-04-18T11:12:58.743Z,101930.35
2023-04-18T11:14:04.131Z,101926.51
2023-04-18T11:15:09.546Z,101930.83
2023-04-18T11:16:15.041Z,101929.13
2023-04-18T11:17:20.446Z,101930.58
2023-04-18T11:18:25.818Z,101926.39
2023-04-18T11:19:31.169Z,101928.56
2023-04-18T11:20:36.554Z,101919.13
2023-04-18T11:21:41.896Z,101927.42
2023-04-18T11:22:47.261Z,101931.08
2023-04-18T11:23:52.646Z,101925.72
2023-04-18T11:24:58.137Z,101923.88
2023-04-18T11:26:03.681Z,101923.31
2023-04-18T11:27:09.040Z,101924.85
2023-04-18T11:28:14.398Z,101920.78
2023-04-18T11:29:19.773Z,101927.48
2023-04-18T11:30:25.134Z,101920.22
2023-04-18T11:31:30.751Z,101920.28
2023-04-18T11:32:36.449Z,101919.77
2023-04-18T11:33:41.969Z,101911.09
2023-04-18T11:34:47.380Z,101924.71
2023-04-18T11:35:52.735Z,101922.81
2023-04-18T11:36:58.122Z,101925.36
2023-04-18T11:38:03.438Z,101920.41
2023-04-18T11:39:08.768Z,101919.08
2023-04-18T11:40:14.100Z,101918.66
2023-04-18T11:41:19.479Z,101926.81
2023-04-18T11:42:24.880Z,101917.84
2023-04-18T11:43:30.592Z,101913.88
2023-04-18T11:44:37.626Z,101916.73
2023-04-18T11:45:43.112Z,101922.59
2023-04-18T11:46:48.528Z,101923.21
2023-04-18T11:47:53.958Z,101923.52
2023-04-18T11:48:59.426Z,101927.03
2023-04-18T11:50:04.837Z,101918.94
2023-04-18T11:51:10.183Z,101917.66
2023-04-18T11:52:18.717Z,101920.28
2023-04-18T11:53:24.041Z,101920.64
2023-04-18T11:54:29.364Z,101921.45
2023-04-18T11:55:34.728Z,101921.98
2023-04-18T11:56:40.064Z,101924.3
2023-04-18T11:57:45.404Z,101924.3
2023-04-18T11:58:50.761Z,101918.8
2023-04-18T11:59:56.120Z,101916.73
2023-04-18T12:01:01.556Z,101914.14
2023-04-18T12:02:17.839Z,101917.84
2023-04-18T12:03:23.678Z,101919.3
2023-04-18T12:04:30.009Z,101922.79
2023-04-18T12:05:36.393Z,101912.44
2023-04-18T12:06:42.456Z,101904.63
2023-04-18T12:07:47.801Z,101914.92
2023-04-18T12:08:54.911Z,101917.02
2023-04-18T12:10:00.331Z,101901.3
2023-04-18T12:11:05.708Z,101906.45
2023-04-18T12:12:11.039Z,101912.48
2023-04-18T12:13:16.684Z,101901.82
2023-04-18T12:14:22.025Z,101905.84
2023-04-18T12:15:27.366Z,101898.89
2023-04-18T12:16:32.900Z,101904.55
2023-04-18T12:17:38.379Z,101899.82
2023-04-18T12:18:43.781Z,101902.33
2023-04-18T12:19:51.071Z,101906.2
2023-04-18T12:20:56.386Z,101901.63
2023-04-18T12:22:01.729Z,101898.53
2023-04-18T12:23:07.082Z,101900.73
2023-04-18T12:24:12.637Z,101907.44
2023-04-18T12:25:18.599Z,101900.95
2023-04-18T12:26:24.094Z,101903.78
2023-04-18T12:27:29.467Z,101896.09
2023-04-18T12:28:35.146Z,101894.92
2023-04-18T12:29:40.492Z,101894.87
2023-04-18T12:30:45.868Z,101888.67
2023-04-18T12:31:51.455Z,101891.83